Sault Sainte Marie, MI

4:24 PM EDT on September 21, 2014 (GMT -0400)
Chippewa County International | Change Station
CLOSE
Current Station
Airport
Location: Chippewa,
Elevation: 801 ft
Nearby Weather Stations

Elev 801 ft 46.25 °N, 84.48 °W | Updated 9 minutes ago

Mostly Cloudy
Mostly Cloudy
50 °F
Feels Like 50 °F
N
22
Wind Variable Wind from NW
Gusts 30 mph

Today
High -- | Low -- °F
--% Chance of Precip.
Yesterday
High -- | Low -- °F
Precip. -- in
7:23 AM 7:37 PM
Waning Crescent, 5% visible
Pressure 29.85 in
Visibility 10.0 miles
Clouds Mostly Cloudy 2400 ft
Overcast 3000 ft
Dew Point 43 °F
Humidity 76%
Rainfall 0.00 in
Snow Depth Not available.
UV 1 out of 12
Pollen 1.60 out of 12
Ozone Good
PM2.5 Good
Flu Activity Not available.
METAR KCIU 212015Z AUTO 31019G26KT 10SM BKN024 OVC030 10/06 A2985 RMK AO1

More Conditions Fewer Conditions

Pressure 29.85 in
Visibility 10.0 miles
Clouds Mostly Cloudy 2400 ft
Overcast 3000 ft
Dew Point 43 °F
Humidity 76%
Rainfall 0.00 in
Snow Depth Not available.
UV 1 out of 12
Pollen 1.60 out of 12
Ozone Good
PM2.5 Good
Flu Activity Not available.
METAR KCIU 212015Z AUTO 31019G26KT 10SM BKN024 OVC030 10/06 A2985 RMK AO1

More Conditions Fewer Conditions

Nowcast | as of 4:00 PM EDT on September 21, 2014

At 5 PM...cloudy. Temperature 49. North winds 14 mph. At 7 PM...mostly cloudy. Temperature 47. North winds 13 mph. At 9 PM...mostly cloudy. Temperature 46. North winds 11 mph. At 11 PM...mostly cloudy. Temperature 45. Northwest winds 8 mph.

×

10-Day Weather Forecast

Almanac

Astronomy

Sep. 21, 2014 Rise Set
Actual Time 7:23 AM EDT 7:37 PM EDT
Civil Twilight 6:52 AM EDT 8:07 PM EDT
Nautical Twilight 6:17 AM EDT 8:42 PM EDT
Astronomical Twilight 5:40 AM EDT 9:18 PM EDT
Moon 4:49 AM EDT 6:17 PM EDT
Length of Visible Light 13h 14m
Length of Day
12h 14m
Tomorrow will be 3m 16s shorter.
Waning Crescent, 5% of the Moon is Illuminated
Today
Waning Crescent
Sep 24
New
Oct 1
First Quarter
Oct 8
Full
Oct 15
Last Quarter

Today's Extremes

State Highs State Lows

Community

WunderPhotos

Upload Photos

1,755,244 photos uploaded!

Nearby

Air Quality

  Air Quality AQ Index Pollutant
Yesterday Good
OZONE
Yesterday Good
PM2.5
Current Good
PM2.5
Current Good
OZONE
Sunday Good
OZONE
Sunday Good
PM2.5
Monday Good
OZONE
Monday Good
PM2.5

Snow Depth

Station Depth Elevation
No new snow has been reported.

Earthquake Activity

City Distance Mag. Time & Date
No recent earthquake activity has been reported nearby.
Minimum magnitude displayed is 2.5.

Coastal Water Temperatures

Place Temperature
De Tour Village, MI 55.9 °F
Rock Cut, MI 57.0 °F
Little Rapids, MI 57.0 °F
S W Pier, MI 57.9 °F
West Neebish, MI 57.0 °F

Nearby Weather Stations